createdAt,value
2022-11-24T00:02:11.267Z,6.88
2022-11-24T00:04:41.985Z,7.28
2022-11-24T00:07:12.211Z,6.10
2022-11-24T00:09:42.468Z,7.97
2022-11-24T00:12:12.737Z,8.68
2022-11-24T00:14:42.805Z,8.65
2022-11-24T00:17:12.969Z,9.35
2022-11-24T00:19:43.419Z,7.10
2022-11-24T00:22:13.579Z,8.18
2022-11-24T00:24:43.701Z,7.93
2022-11-24T00:27:13.830Z,5.88
2022-11-24T00:29:44.568Z,5.93
2022-11-24T00:32:14.632Z,7.03
2022-11-24T00:34:44.796Z,4.20
2022-11-24T00:37:14.927Z,4.30
2022-11-24T00:39:45.327Z,4.15
2022-11-24T00:42:18.348Z,5.90
2022-11-24T00:44:48.427Z,4.93
2022-11-24T00:47:18.597Z,5.18
2022-11-24T00:49:48.743Z,4.82
2022-11-24T00:52:18.822Z,6.22
2022-11-24T00:54:48.961Z,7.07
2022-11-24T00:57:19.035Z,6.63
2022-11-24T00:59:49.599Z,7.78
2022-11-24T01:02:19.798Z,9.05
2022-11-24T01:04:51.100Z,8.73
2022-11-24T01:07:21.731Z,10.82
2022-11-24T01:09:51.926Z,12.00
2022-11-24T01:12:22.249Z,10.48
2022-11-24T01:14:52.380Z,12.43
2022-11-24T01:17:22.595Z,12.70
2022-11-24T01:19:53.563Z,11.88
2022-11-24T01:22:23.878Z,10.20
2022-11-24T01:24:54.283Z,10.77
2022-11-24T01:27:24.504Z,11.57
2022-11-24T01:29:55.447Z,13.55
2022-11-24T01:32:26.048Z,11.68
2022-11-24T01:34:56.219Z,10.48
2022-11-24T01:37:26.349Z,13.10
2022-11-24T01:39:57.609Z,13.25
2022-11-24T01:42:27.804Z,12.85
2022-11-24T01:45:16.069Z,12.13
2022-11-24T01:47:46.779Z,11.77
2022-11-24T01:50:18.590Z,14.98
2022-11-24T01:52:50.129Z,12.85
2022-11-24T01:55:22.263Z,10.20
2022-11-24T01:57:56.461Z,9.85
2022-11-24T02:00:27.328Z,11.23
2022-11-24T02:02:57.697Z,7.25
2022-11-24T02:05:33.551Z,9.15
2022-11-24T02:08:03.941Z,7.60
2022-11-24T02:10:34.812Z,10.02
2022-11-24T02:13:05.150Z,11.45
2022-11-24T02:15:35.303Z,11.82
2022-11-24T02:18:05.510Z,15.13
2022-11-24T02:20:35.676Z,16.05
2022-11-24T02:23:26.044Z,14.90
2022-11-24T02:25:56.457Z,16.80
2022-11-24T02:28:26.601Z,16.27
2022-11-24T02:30:56.776Z,15.70
2022-11-24T02:33:26.919Z,14.85
2022-11-24T02:35:57.117Z,14.43
2022-11-24T02:38:33.825Z,15.05
2022-11-24T02:41:12.340Z,11.98
2022-11-24T02:43:45.990Z,13.00
2022-11-24T02:46:16.470Z,11.20
2022-11-24T02:48:46.656Z,10.75
2022-11-24T02:51:16.836Z,12.20
2022-11-24T02:53:47.104Z,11.65
2022-11-24T02:56:17.212Z,10.68
2022-11-24T02:58:47.367Z,10.10
2022-11-24T03:01:17.495Z,8.82
2022-11-24T03:03:47.686Z,9.13
2022-11-24T03:06:17.764Z,8.98
2022-11-24T03:08:47.843Z,10.63
2022-11-24T03:11:17.987Z,10.00
2022-11-24T03:13:48.426Z,9.77
2022-11-24T03:16:21.373Z,9.75
2022-11-24T03:18:54.884Z,9.27
2022-11-24T03:21:26.656Z,9.68
2022-11-24T03:23:57.081Z,6.78
2022-11-24T03:26:27.326Z,7.85
2022-11-24T03:28:58.443Z,8.38
2022-11-24T03:31:28.845Z,9.00
2022-11-24T03:33:59.269Z,7.70
2022-11-24T03:36:29.383Z,9.10
2022-11-24T03:38:59.475Z,7.75
2022-11-24T03:41:29.688Z,6.82
2022-11-24T03:43:59.837Z,7.40
2022-11-24T03:46:30.108Z,8.82
2022-11-24T03:49:00.263Z,8.18
2022-11-24T03:51:30.490Z,8.00
2022-11-24T03:54:00.608Z,9.98
2022-11-24T03:56:30.751Z,8.73
2022-11-24T03:59:00.831Z,9.65
2022-11-24T04:01:30.982Z,9.05
2022-11-24T04:04:01.311Z,8.05
2022-11-24T04:06:31.482Z,9.10
2022-11-24T04:09:02.424Z,7.72
2022-11-24T04:11:51.164Z,5.47
2022-11-24T04:14:23.241Z,5.13
2022-11-24T04:16:53.597Z,5.68
2022-11-24T04:19:23.831Z,5.15
2022-11-24T04:21:53.950Z,5.32
2022-11-24T04:24:24.193Z,5.95
2022-11-24T04:26:56.749Z,5.70
2022-11-24T04:29:27.316Z,6.30
2022-11-24T04:31:57.438Z,7.18
2022-11-24T04:34:27.543Z,5.95
2022-11-24T04:36:57.682Z,6.47
2022-11-24T04:39:31.819Z,5.93
2022-11-24T04:42:02.370Z,6.25
2022-11-24T04:44:32.845Z,6.82
2022-11-24T04:47:04.147Z,6.68
2022-11-24T04:49:34.566Z,6.93
2022-11-24T04:52:05.015Z,6.45
2022-11-24T04:54:35.547Z,7.38
2022-11-24T04:57:06.104Z,8.20
2022-11-24T04:59:36.266Z,7.90
2022-11-24T05:02:06.438Z,9.48
2022-11-24T05:04:37.203Z,8.43
2022-11-24T05:07:07.811Z,8.30
2022-11-24T05:09:59.556Z,8.27
2022-11-24T05:12:32.924Z,9.15
2022-11-24T05:15:03.157Z,8.25
2022-11-24T05:17:33.682Z,8.48
2022-11-24T05:20:03.618Z,8.82
2022-11-24T05:22:33.648Z,8.27
2022-11-24T05:25:03.783Z,8.63
2022-11-24T05:27:33.391Z,8.15
2022-11-24T05:30:03.351Z,7.70
2022-11-24T05:32:33.033Z,8.95
2022-11-24T05:35:05.656Z,9.02
2022-11-24T05:37:35.651Z,9.55
2022-11-24T05:40:06.312Z,9.48
2022-11-24T05:42:47.125Z,8.65
2022-11-24T05:45:18.726Z,9.43
2022-11-24T05:47:48.864Z,11.02
2022-11-24T05:50:19.461Z,8.60
2022-11-24T05:52:49.800Z,8.93
2022-11-24T05:55:20.684Z,9.95
2022-11-24T05:57:50.376Z,8.13
2022-11-24T06:00:20.774Z,8.18
2022-11-24T06:02:50.481Z,8.20
2022-11-24T06:05:20.177Z,8.40
2022-11-24T06:07:50.281Z,8.82
2022-11-24T06:10:20.594Z,9.10
2022-11-24T06:12:50.694Z,11.90
2022-11-24T06:15:20.768Z,11.20
2022-11-24T06:17:59.250Z,11.30
2022-11-24T06:20:33.082Z,11.30
2022-11-24T06:23:02.955Z,14.98
2022-11-24T06:25:33.739Z,16.55
2022-11-24T06:28:05.132Z,19.40
2022-11-24T06:30:37.056Z,21.33
2022-11-24T06:33:07.399Z,21.80
2022-11-24T06:35:37.766Z,22.10
2022-11-24T06:38:08.650Z,20.80
2022-11-24T06:40:38.744Z,18.70
2022-11-24T06:43:08.333Z,18.33
2022-11-24T06:45:38.377Z,15.10
2022-11-24T06:48:08.500Z,18.40
2022-11-24T06:50:38.681Z,18.80
2022-11-24T06:53:09.307Z,18.92
2022-11-24T06:55:39.340Z,17.85
2022-11-24T06:58:09.305Z,18.98
2022-11-24T07:00:39.140Z,19.77
2022-11-24T07:03:08.800Z,21.50
2022-11-24T07:05:38.853Z,21.35
2022-11-24T07:08:11.975Z,18.77
2022-11-24T07:10:44.582Z,18.83
2022-11-24T07:13:14.093Z,18.45
2022-11-24T07:15:44.483Z,16.92
2022-11-24T07:18:15.687Z,15.50
2022-11-24T07:20:45.911Z,12.18
2022-11-24T07:23:16.272Z,8.98
2022-11-24T07:25:46.324Z,8.25
2022-11-24T07:28:16.306Z,4.55
2022-11-24T07:30:45.878Z,5.53
2022-11-24T07:33:16.834Z,5.97
2022-11-24T07:35:46.350Z,5.85
2022-11-24T07:38:16.353Z,5.40
2022-11-24T07:40:48.487Z,5.57
2022-11-24T07:43:20.359Z,5.35
2022-11-24T07:45:55.224Z,4.63
2022-11-24T07:48:25.129Z,4.28
2022-11-24T07:50:56.273Z,4.53
2022-11-24T07:53:26.665Z,4.57
2022-11-24T07:56:02.987Z,5.40
2022-11-24T07:58:34.040Z,4.55
2022-11-24T08:01:14.239Z,3.78
2022-11-24T08:03:45.035Z,3.33
2022-11-24T08:06:25.098Z,3.58
2022-11-24T08:08:58.475Z,3.22
2022-11-24T08:11:28.278Z,3.72
2022-11-24T08:13:58.381Z,4.22
2022-11-24T08:16:28.110Z,4.57
2022-11-24T08:18:59.960Z,3.38
2022-11-24T08:21:30.428Z,3.90
2022-11-24T08:24:00.252Z,3.90
2022-11-24T08:26:29.805Z,3.65
2022-11-24T08:29:00.249Z,3.67
2022-11-24T08:31:34.583Z,3.25
2022-11-24T08:34:04.865Z,4.10
2022-11-24T08:36:35.733Z,3.90
2022-11-24T08:39:05.913Z,3.78
2022-11-24T08:41:36.521Z,3.90
2022-11-24T08:44:17.157Z,4.38
2022-11-24T08:46:48.053Z,5.35
2022-11-24T08:49:19.487Z,4.18
2022-11-24T08:51:51.169Z,4.93
2022-11-24T08:54:22.585Z,4.65
2022-11-24T08:56:53.908Z,3.70
2022-11-24T08:59:24.071Z,5.63
2022-11-24T09:01:53.810Z,4.97
2022-11-24T09:04:23.346Z,5.45
2022-11-24T09:06:53.364Z,4.60
2022-11-24T09:09:23.143Z,5.70
2022-11-24T09:11:53.290Z,5.07
2022-11-24T09:14:23.524Z,5.32
2022-11-24T09:16:53.253Z,5.70
2022-11-24T09:19:23.605Z,5.75
2022-11-24T09:21:53.434Z,5.53
2022-11-24T09:24:22.962Z,5.68
2022-11-24T09:26:53.128Z,6.32
2022-11-24T09:29:22.790Z,6.75
2022-11-24T09:31:52.840Z,3.90
2022-11-24T09:34:23.448Z,4.85
2022-11-24T09:36:53.837Z,3.92
2022-11-24T09:39:27.186Z,4.95
2022-11-24T09:42:00.589Z,3.97
2022-11-24T09:44:42.270Z,4.80
2022-11-24T09:47:18.487Z,4.63
2022-11-24T09:49:51.831Z,5.30
2022-11-24T09:52:23.782Z,4.97
2022-11-24T09:54:55.978Z,3.90
2022-11-24T09:57:26.351Z,3.92
2022-11-24T09:59:57.622Z,4.97
2022-11-24T10:02:27.697Z,4.32
2022-11-24T10:04:57.961Z,4.88
2022-11-24T10:07:39.244Z,4.20
2022-11-24T10:10:24.544Z,4.80
2022-11-24T10:13:10.748Z,5.10
2022-11-24T10:15:46.826Z,4.07
2022-11-24T10:18:23.168Z,4.60
2022-11-24T10:21:22.364Z,4.15
2022-11-24T10:23:52.058Z,4.60
2022-11-24T10:26:23.381Z,4.00
2022-11-24T10:28:59.420Z,4.60
2022-11-24T10:31:36.336Z,4.85
2022-11-24T10:34:11.685Z,4.28
2022-11-24T10:36:50.281Z,2.83
2022-11-24T10:39:25.471Z,5.32
2022-11-24T10:42:15.144Z,5.95
2022-11-24T10:44:45.156Z,5.43
2022-11-24T10:47:21.759Z,4.25
2022-11-24T10:50:00.774Z,4.18
2022-11-24T10:52:34.780Z,4.93
2022-11-24T10:55:05.406Z,5.40
2022-11-24T10:57:35.800Z,4.72
2022-11-24T11:00:21.040Z,4.43
2022-11-24T11:02:51.348Z,3.10
2022-11-24T11:05:39.061Z,4.45
2022-11-24T11:08:27.902Z,4.15
2022-11-24T11:11:26.798Z,4.68
2022-11-24T11:14:04.283Z,3.88
2022-11-24T11:16:37.745Z,4.00
2022-11-24T11:19:26.081Z,3.42
2022-11-24T11:22:05.550Z,4.07
2022-11-24T11:24:35.794Z,4.40
2022-11-24T11:27:06.982Z,5.05
2022-11-24T11:35:19.116Z,3.40
2022-11-24T11:37:50.651Z,3.50
2022-11-24T11:40:21.223Z,3.55
2022-11-24T11:43:02.481Z,3.72
2022-11-24T11:45:37.169Z,2.72
2022-11-24T11:48:35.075Z,3.08
2022-11-24T11:51:29.168Z,2.67
2022-11-24T11:53:58.979Z,2.95
2022-11-24T11:56:41.640Z,2.58
2022-11-24T11:59:11.764Z,3.22
2022-11-24T12:01:57.109Z,3.25
2022-11-24T12:04:45.046Z,3.97
2022-11-24T12:07:34.194Z,4.85
2022-11-24T12:10:23.112Z,4.25
2022-11-24T12:13:05.153Z,3.33
2022-11-24T12:15:48.311Z,3.28
2022-11-24T12:21:26.171Z,3.35
2022-11-24T12:24:07.068Z,2.30
2022-11-24T12:26:42.679Z,2.50
2022-11-24T12:29:36.347Z,3.30
2022-11-24T12:32:25.692Z,3.92
2022-11-24T12:35:00.504Z,3.53
2022-11-24T12:37:45.671Z,4.00
2022-11-24T12:40:34.182Z,3.55
2022-11-24T12:43:26.236Z,3.90
2022-11-24T12:45:59.888Z,3.95
2022-11-24T12:48:32.653Z,2.65
2022-11-24T12:51:02.898Z,2.33
2022-11-24T12:53:36.334Z,2.65
2022-11-24T12:56:10.287Z,3.53
2022-11-24T12:58:58.740Z,1.67
2022-11-24T13:01:38.497Z,1.83
2022-11-24T13:04:13.903Z,2.10
2022-11-24T13:06:49.721Z,3.38
2022-11-24T13:09:19.496Z,4.43
2022-11-24T13:11:50.081Z,3.97
2022-11-24T13:14:22.747Z,2.80
2022-11-24T13:19:52.352Z,3.38
2022-11-24T13:22:26.078Z,2.38
2022-11-24T13:25:15.748Z,3.33
2022-11-24T13:27:46.463Z,2.75
2022-11-24T13:30:34.626Z,3.13
2022-11-24T13:33:16.960Z,4.03
2022-11-24T13:36:15.719Z,3.33
2022-11-24T13:38:48.413Z,3.67
2022-11-24T13:41:34.676Z,4.07
2022-11-24T13:44:16.996Z,3.85
2022-11-24T13:47:05.165Z,4.13
2022-11-24T13:49:47.189Z,3.20
2022-11-24T13:52:35.152Z,2.88
2022-11-24T13:55:10.037Z,4.40
2022-11-24T13:57:51.570Z,4.57
2022-11-24T14:00:25.317Z,3.70
2022-11-24T14:02:56.190Z,3.35
2022-11-24T14:05:29.070Z,3.72
2022-11-24T14:07:59.098Z,3.65
2022-11-24T14:10:31.838Z,4.28
2022-11-24T14:13:20.607Z,4.10
2022-11-24T14:16:03.016Z,3.45
2022-11-24T14:18:32.720Z,3.80
2022-11-24T14:21:04.247Z,4.15
2022-11-24T14:23:34.323Z,3.58
2022-11-24T14:26:04.366Z,2.58
2022-11-24T14:28:34.659Z,2.83
2022-11-24T14:31:11.530Z,4.45
2022-11-24T14:33:41.191Z,0.93
2022-11-24T14:36:16.520Z,3.03
2022-11-24T14:38:46.529Z,4.10
2022-11-24T14:41:17.283Z,3.45
2022-11-24T14:43:47.346Z,3.45
2022-11-24T14:46:21.093Z,3.60
2022-11-24T14:48:51.475Z,5.95
2022-11-24T14:51:28.585Z,3.08
2022-11-24T14:54:08.418Z,2.95
2022-11-24T14:56:38.922Z,3.05
2022-11-24T14:59:25.442Z,3.50
2022-11-24T15:01:55.833Z,4.22
2022-11-24T15:07:19.682Z,2.90
2022-11-24T15:09:50.546Z,4.50
2022-11-24T15:12:29.845Z,2.20
2022-11-24T15:15:00.728Z,3.00
2022-11-24T15:17:31.807Z,2.72
2022-11-24T15:20:06.021Z,2.55
2022-11-24T15:22:36.211Z,2.90
2022-11-24T15:25:22.607Z,2.50
2022-11-24T15:27:53.744Z,2.92
2022-11-24T15:30:24.355Z,2.17
2022-11-24T15:33:00.823Z,2.75
2022-11-24T15:38:00.860Z,2.33
2022-11-24T15:40:30.577Z,1.67
2022-11-24T15:43:06.145Z,1.27
2022-11-24T15:45:36.997Z,2.10
2022-11-24T15:48:07.558Z,2.88
2022-11-24T15:50:38.497Z,3.53
2022-11-24T15:53:08.608Z,3.03
2022-11-24T15:55:38.715Z,1.50
2022-11-24T15:58:09.877Z,1.80
2022-11-24T16:00:40.269Z,2.05
2022-11-24T16:03:44.572Z,1.58
2022-11-24T16:06:12.731Z,2.78
2022-11-24T16:08:43.936Z,1.85
2022-11-24T16:11:13.526Z,2.15
2022-11-24T16:13:48.376Z,1.58
2022-11-24T16:16:21.995Z,1.50
2022-11-24T16:18:51.996Z,1.40
2022-11-24T16:21:22.802Z,2.70
2022-11-24T16:23:52.538Z,4.68
2022-11-24T16:26:22.381Z,3.13
2022-11-24T16:28:52.392Z,3.22
2022-11-24T16:31:21.981Z,3.70
2022-11-24T16:33:52.017Z,4.38
2022-11-24T16:36:22.111Z,4.75
2022-11-24T16:38:52.296Z,4.32
2022-11-24T16:41:22.537Z,2.83
2022-11-24T16:43:54.219Z,3.88
2022-11-24T16:46:24.875Z,3.25
2022-11-24T16:48:58.478Z,2.58
2022-11-24T16:51:34.233Z,2.92
2022-11-24T16:54:05.201Z,3.90
2022-11-24T16:56:35.288Z,3.08
2022-11-24T16:59:05.376Z,3.42
2022-11-24T17:01:36.101Z,3.38
2022-11-24T17:04:11.045Z,4.72
2022-11-24T17:09:14.035Z,4.00
2022-11-24T17:11:43.900Z,2.45
2022-11-24T17:14:14.127Z,3.33
2022-11-24T17:16:43.724Z,1.45
2022-11-24T17:19:14.135Z,3.38
2022-11-24T17:21:43.798Z,1.60
2022-11-24T17:24:18.266Z,3.03
2022-11-24T17:26:49.250Z,1.35
2022-11-24T17:29:20.734Z,1.08
2022-11-24T17:31:50.874Z,1.38
2022-11-24T17:34:20.777Z,1.35
2022-11-24T17:36:50.537Z,1.15
2022-11-24T17:39:24.969Z,1.35
2022-11-24T17:41:55.542Z,1.90
2022-11-24T17:44:31.821Z,1.10
2022-11-24T17:47:02.021Z,1.13
2022-11-24T17:49:32.788Z,1.35
2022-11-24T17:52:02.478Z,1.30
2022-11-24T17:54:46.027Z,0.82
2022-11-24T17:57:16.886Z,0.68
2022-11-24T17:59:47.305Z,1.35
2022-11-24T18:02:19.921Z,0.95
2022-11-24T18:04:50.175Z,0.95
2022-11-24T18:07:21.091Z,1.05
2022-11-24T18:09:51.748Z,0.75
2022-11-24T18:12:22.066Z,1.05
2022-11-24T18:14:51.801Z,1.58
2022-11-24T18:17:21.402Z,1.65
2022-11-24T18:19:50.898Z,1.40
2022-11-24T18:22:36.736Z,1.15
2022-11-24T18:25:12.667Z,1.05
2022-11-24T18:27:42.441Z,0.93
2022-11-24T18:30:12.593Z,0.80
2022-11-24T18:32:42.729Z,0.98
2022-11-24T18:35:13.130Z,0.90
2022-11-24T18:37:45.787Z,1.50
2022-11-24T18:40:15.558Z,1.20
2022-11-24T18:42:45.094Z,2.25
2022-11-24T18:45:15.070Z,1.65
2022-11-24T18:47:45.344Z,2.25
2022-11-24T18:50:15.484Z,2.38
2022-11-24T18:52:45.700Z,2.40
2022-11-24T18:55:18.489Z,1.40
2022-11-24T18:57:48.501Z,1.20
2022-11-24T19:00:18.632Z,0.93
2022-11-24T19:02:54.658Z,1.13
2022-11-24T19:05:27.734Z,1.40
2022-11-24T19:07:57.709Z,1.15
2022-11-24T19:10:27.765Z,1.35
2022-11-24T19:12:57.705Z,0.57
2022-11-24T19:15:27.318Z,0.98
2022-11-24T19:17:56.819Z,1.08
2022-11-24T19:20:26.847Z,0.50
2022-11-24T19:22:57.103Z,0.20
2022-11-24T19:25:26.790Z,0.50
2022-11-24T19:27:56.791Z,0.50
2022-11-24T19:30:26.466Z,0.82
2022-11-24T19:33:02.645Z,1.60
2022-11-24T19:38:01.646Z,1.17
2022-11-24T19:40:31.232Z,0.95
2022-11-24T19:43:01.396Z,0.60
2022-11-24T19:45:31.197Z,1.23
2022-11-24T19:48:01.347Z,0.20
2022-11-24T19:50:31.547Z,0.30
2022-11-24T19:53:01.807Z,0.45
2022-11-24T19:55:32.073Z,0.75
2022-11-24T19:58:01.679Z,0.47
2022-11-24T20:00:32.191Z,1.00
2022-11-24T20:03:02.580Z,0.65
2022-11-24T20:05:32.208Z,0.63
2022-11-24T20:08:02.781Z,0.68
2022-11-24T20:10:32.392Z,0.73
2022-11-24T20:13:02.384Z,0.50
2022-11-24T20:15:32.554Z,0.40
2022-11-24T20:18:02.244Z,0.40
2022-11-24T20:20:32.640Z,0.70
2022-11-24T20:23:03.311Z,1.03
2022-11-24T20:25:33.367Z,0.87
2022-11-24T20:28:03.775Z,0.87
2022-11-24T20:30:34.457Z,0.27
2022-11-24T20:33:04.760Z,0.70
2022-11-24T20:35:34.473Z,0.63
2022-11-24T20:38:04.470Z,0.93
2022-11-24T20:40:34.711Z,0.93
2022-11-24T20:43:04.582Z,0.63
2022-11-24T20:45:34.944Z,0.40
2022-11-24T20:48:05.842Z,0.77
2022-11-24T20:50:38.736Z,0.77
2022-11-24T20:53:08.284Z,0.83
2022-11-24T20:55:38.283Z,0.87
2022-11-24T20:58:15.529Z,0.20
2022-11-24T21:00:45.957Z,0.17
2022-11-24T21:03:16.366Z,0.33
2022-11-24T21:05:46.021Z,0.47
2022-11-24T21:08:15.617Z,1.27
2022-11-24T21:10:45.658Z,0.60
2022-11-24T21:13:18.311Z,0.67
2022-11-24T21:15:49.212Z,1.47
2022-11-24T21:18:19.522Z,0.53
2022-11-24T21:20:49.916Z,0.20
2022-11-24T21:23:26.425Z,1.47
2022-11-24T21:26:05.242Z,1.23
2022-11-24T21:28:35.490Z,0.97
2022-11-24T21:31:05.802Z,0.97
2022-11-24T21:33:35.559Z,0.97
2022-11-24T21:36:05.739Z,0.93
2022-11-24T21:38:35.703Z,2.33
2022-11-24T21:41:09.451Z,0.83
2022-11-24T21:43:39.349Z,1.30
2022-11-24T21:46:10.273Z,0.63
2022-11-24T21:48:41.100Z,0.90
2022-11-24T21:51:15.183Z,0.53
2022-11-24T21:53:45.782Z,0.83
2022-11-24T21:56:17.913Z,0.87
2022-11-24T21:58:48.949Z,0.63
2022-11-24T22:01:19.836Z,0.70
2022-11-24T22:03:49.747Z,2.07
2022-11-24T22:06:19.998Z,1.43
2022-11-24T22:08:50.172Z,0.83
2022-11-24T22:11:24.488Z,2.73
2022-11-24T22:13:54.612Z,1.80
2022-11-24T22:16:25.464Z,0.93
2022-11-24T22:18:55.523Z,2.37
2022-11-24T22:21:31.221Z,1.23
2022-11-24T22:24:03.825Z,1.15
2022-11-24T22:26:34.276Z,1.87
2022-11-24T22:29:03.931Z,1.37
2022-11-24T22:31:34.557Z,1.77
2022-11-24T22:34:04.761Z,1.57
2022-11-24T22:36:37.400Z,1.73
2022-11-24T22:39:07.793Z,1.80
2022-11-24T22:41:40.465Z,1.30
2022-11-24T22:44:12.067Z,1.40
2022-11-24T22:46:41.804Z,1.23
2022-11-24T22:49:11.800Z,1.13
2022-11-24T22:51:41.976Z,2.07
2022-11-24T22:54:14.981Z,1.90
2022-11-24T22:56:44.745Z,2.17
2022-11-24T22:59:14.427Z,3.30
2022-11-24T23:01:44.159Z,2.97
2022-11-24T23:04:13.906Z,1.73
2022-11-24T23:06:44.213Z,2.73
2022-11-24T23:09:14.132Z,0.57
2022-11-24T23:11:44.027Z,1.40
2022-11-24T23:14:14.769Z,1.97
2022-11-24T23:16:44.898Z,1.40
2022-11-24T23:19:15.446Z,1.93
2022-11-24T23:21:45.119Z,1.60
2022-11-24T23:24:14.892Z,4.10
2022-11-24T23:26:45.259Z,3.00
2022-11-24T23:29:18.672Z,5.83
2022-11-24T23:31:48.711Z,7.33
2022-11-24T23:34:18.726Z,5.53
2022-11-24T23:36:48.736Z,6.40
2022-11-24T23:39:18.928Z,8.10
2022-11-24T23:41:49.127Z,7.37
2022-11-24T23:44:18.967Z,5.90
2022-11-24T23:46:48.650Z,8.60
2022-11-24T23:49:18.806Z,5.67
2022-11-24T23:51:48.953Z,4.87
2022-11-24T23:54:18.922Z,4.13
2022-11-24T23:56:49.384Z,3.87
2022-11-24T23:59:20.469Z,5.87
